createdAt,value
2023-04-11T00:02:07.090Z,99659.94
2023-04-11T00:04:42.032Z,99656.59
2023-04-11T00:07:16.099Z,99645.00
2023-04-11T00:09:50.678Z,99639.72
2023-04-11T00:12:22.637Z,99633.06
2023-04-11T00:14:53.810Z,99634.59
2023-04-11T00:17:24.260Z,99623.78
2023-04-11T00:19:54.206Z,99628.50
2023-04-11T00:22:27.690Z,99620.69
2023-04-11T00:25:00.084Z,99633.34
2023-04-11T00:27:30.620Z,99620.94
2023-04-11T00:30:01.480Z,99623.78
2023-04-11T00:32:40.667Z,99618.00
2023-04-11T00:35:17.696Z,99621.94
2023-04-11T00:37:51.372Z,99628.06
2023-04-11T00:40:24.258Z,99629.41
2023-04-11T00:42:55.572Z,99625.66
2023-04-11T00:45:26.664Z,99630.16
2023-04-11T00:47:58.513Z,99627.97
2023-04-11T00:50:32.925Z,99634.66
2023-04-11T00:53:07.176Z,99620.69
2023-04-11T00:55:37.138Z,99626.44
2023-04-11T00:58:12.505Z,99629.00
2023-04-11T01:00:41.662Z,99622.22
2023-04-11T01:03:15.994Z,99613.06
2023-04-11T01:05:46.380Z,99612.59
2023-04-11T01:08:17.581Z,99591.47
2023-04-11T01:10:48.060Z,99593.81
2023-04-11T01:13:20.247Z,99587.25
2023-04-11T01:15:48.785Z,99588.06
2023-04-11T01:18:20.750Z,99583.50
2023-04-11T01:20:54.312Z,99579.63
2023-04-11T01:23:38.924Z,99569.97
2023-04-11T01:26:09.999Z,99562.97
2023-04-11T01:28:39.751Z,99561.13
2023-04-11T01:31:08.582Z,99548.22
2023-04-11T01:33:43.227Z,99546.44
2023-04-11T01:36:12.561Z,99542.56
2023-04-11T01:38:47.460Z,99536.56
2023-04-11T01:41:18.750Z,99543.78
2023-04-11T01:43:47.055Z,99537.44
2023-04-11T01:46:17.757Z,99535.59
2023-04-11T01:48:49.793Z,99525.09
2023-04-11T01:51:20.807Z,99521.69
2023-04-11T01:53:57.570Z,99515.75
2023-04-11T01:56:26.454Z,99510.56
2023-04-11T01:58:59.549Z,99516.00
2023-04-11T02:01:35.901Z,99508.97
2023-04-11T02:04:05.918Z,99508.72
2023-04-11T02:06:34.905Z,99498.88
2023-04-11T02:09:20.613Z,99489.63
2023-04-11T02:11:50.548Z,99481.91
2023-04-11T02:14:30.110Z,99477.91
2023-04-11T02:17:04.378Z,99484.91
2023-04-11T02:19:34.670Z,99491.19
2023-04-11T02:22:03.484Z,99492.97
2023-04-11T02:24:40.124Z,99474.75
2023-04-11T02:27:08.888Z,99473.41
2023-04-11T02:29:38.372Z,99472.44
2023-04-11T02:32:07.220Z,99462.06
2023-04-11T02:34:39.055Z,99459.03
2023-04-11T02:37:08.605Z,99457.94
2023-04-11T02:39:43.994Z,99444.72
2023-04-11T02:42:13.991Z,99435.38
2023-04-11T02:44:46.080Z,99437.13
2023-04-11T02:47:17.611Z,99436.06
2023-04-11T02:50:00.446Z,99432.97
2023-04-11T02:52:37.770Z,99429.44
2023-04-11T02:55:12.300Z,99427.63
2023-04-11T02:57:40.432Z,99441.38
2023-04-11T03:00:22.677Z,99444.16
2023-04-11T03:03:00.139Z,99443.50
2023-04-11T03:05:34.065Z,99423.31
2023-04-11T03:08:06.085Z,99422.28
2023-04-11T03:10:38.606Z,99401.41
2023-04-11T03:13:11.356Z,99411.19
2023-04-11T03:15:42.620Z,99410.16
2023-04-11T03:18:14.535Z,99416.19
2023-04-11T03:20:45.739Z,99417.94
2023-04-11T03:23:19.802Z,99423.91
2023-04-11T03:25:51.003Z,99417.75
2023-04-11T03:28:23.845Z,99416.84
2023-04-11T03:30:53.070Z,99417.81
2023-04-11T03:33:34.159Z,99406.44
2023-04-11T03:36:06.004Z,99417.88
2023-04-11T03:38:36.818Z,99394.50
2023-04-11T03:41:09.385Z,99390.72
2023-04-11T03:43:41.202Z,99382.59
2023-04-11T03:46:11.931Z,99381.34
2023-04-11T03:48:47.535Z,99366.88
2023-04-11T03:51:21.252Z,99362.53
2023-04-11T03:53:57.786Z,99363.56
2023-04-11T03:56:41.787Z,99351.66
2023-04-11T03:59:21.386Z,99372.22
2023-04-11T04:02:14.977Z,99369.28
2023-04-11T04:04:57.512Z,99363.50
2023-04-11T04:07:33.033Z,99371.47
2023-04-11T04:10:12.314Z,99371.34
2023-04-11T04:12:44.958Z,99368.63
2023-04-11T04:15:27.746Z,99374.34
2023-04-11T04:17:57.003Z,99365.66
2023-04-11T04:20:45.109Z,99361.72
2023-04-11T04:23:20.384Z,99353.41
2023-04-11T04:26:04.255Z,99365.31
2023-04-11T04:28:38.515Z,99361.47
2023-04-11T04:31:09.551Z,99370.56
2023-04-11T04:33:44.153Z,99377.66
2023-04-11T04:36:31.276Z,99375.38
2023-04-11T04:39:02.193Z,99379.38
2023-04-11T04:41:40.254Z,99386.91
2023-04-11T04:44:10.594Z,99390.97
2023-04-11T04:46:46.397Z,99376.28
2023-04-11T04:49:15.688Z,99359.97
2023-04-11T04:51:47.878Z,99354.31
2023-04-11T04:54:32.229Z,99341.97
2023-04-11T04:57:05.036Z,99345.13
2023-04-11T04:59:47.621Z,99356.44
2023-04-11T05:02:18.356Z,99349.94
2023-04-11T05:04:50.876Z,99349.34
2023-04-11T05:07:21.070Z,99352.47
2023-04-11T05:09:55.255Z,99355.75
2023-04-11T05:12:30.459Z,99349.09
2023-04-11T05:15:19.032Z,99348.59
2023-04-11T05:17:49.795Z,99349.56
2023-04-11T05:20:21.949Z,99338.84
2023-04-11T05:22:55.821Z,99338.38
2023-04-11T05:25:26.185Z,99335.72
2023-04-11T05:27:57.968Z,99329.34
2023-04-11T05:30:41.609Z,99333.75
2023-04-11T05:33:12.969Z,99326.59
2023-04-11T05:35:44.390Z,99320.78
2023-04-11T05:38:13.913Z,99330.13
2023-04-11T05:40:43.001Z,99339.84
2023-04-11T05:43:15.627Z,99334.44
2023-04-11T05:45:48.009Z,99333.88
2023-04-11T05:48:20.246Z,99336.56
2023-04-11T05:50:51.464Z,99329.25
2023-04-11T05:53:23.471Z,99326.94
2023-04-11T05:55:53.172Z,99329.91
2023-04-11T05:58:35.147Z,99330.81
2023-04-11T06:01:14.708Z,99320.31
2023-04-11T06:03:44.563Z,99311.47
2023-04-11T06:06:15.858Z,99303.25
2023-04-11T06:08:44.935Z,99297.75
2023-04-11T06:11:16.119Z,99302.72
2023-04-11T06:13:45.772Z,99302.09
2023-04-11T06:16:26.327Z,99302.16
2023-04-11T06:18:55.732Z,99299.66
2023-04-11T06:21:24.728Z,99294.59
2023-04-11T06:23:54.716Z,99293.53
2023-04-11T06:26:26.069Z,99310.56
2023-04-11T06:28:58.781Z,99303.59
2023-04-11T06:31:34.148Z,99310.00
2023-04-11T06:34:07.036Z,99314.97
2023-04-11T06:36:37.416Z,99292.72
2023-04-11T06:39:09.850Z,99286.06
2023-04-11T06:41:50.197Z,99270.97
2023-04-11T06:44:29.293Z,99277.69
2023-04-11T06:47:01.574Z,99259.81
2023-04-11T06:49:31.375Z,99261.38
2023-04-11T06:52:03.543Z,99263.59
2023-04-11T06:54:35.211Z,99265.47
2023-04-11T06:57:06.303Z,99266.84
2023-04-11T06:59:35.934Z,99264.66
2023-04-11T07:02:11.036Z,99262.56
2023-04-11T07:04:43.333Z,99267.16
2023-04-11T07:07:11.461Z,99250.75
2023-04-11T07:09:46.051Z,99253.16
2023-04-11T07:12:23.503Z,99247.66
2023-04-11T07:14:54.544Z,99254.00
2023-04-11T07:17:24.348Z,99249.53
2023-04-11T07:19:56.022Z,99244.56
2023-04-11T07:22:31.335Z,99250.84
2023-04-11T07:25:02.861Z,99257.63
2023-04-11T07:27:32.193Z,99257.22
2023-04-11T07:30:02.142Z,99257.91
2023-04-11T07:32:37.106Z,99249.06
2023-04-11T07:35:19.494Z,99263.47
2023-04-11T07:37:47.874Z,99245.16
2023-04-11T07:40:17.966Z,99257.25
2023-04-11T07:42:49.821Z,99254.16
2023-04-11T07:45:20.713Z,99257.34
2023-04-11T07:47:58.066Z,99250.63
2023-04-11T07:50:26.266Z,99252.16
2023-04-11T07:52:57.126Z,99249.38
2023-04-11T07:55:34.533Z,99242.06
2023-04-11T07:58:04.891Z,99245.59
2023-04-11T08:00:34.781Z,99239.81
2023-04-11T08:03:08.120Z,99251.53
2023-04-11T08:05:40.712Z,99244.75
2023-04-11T08:08:12.483Z,99242.75
2023-04-11T08:10:43.139Z,99234.00
2023-04-11T08:13:12.392Z,99241.06
2023-04-11T08:15:44.213Z,99239.69
2023-04-11T08:18:17.142Z,99235.28
2023-04-11T08:20:49.000Z,99246.53
2023-04-11T08:23:20.669Z,99237.88
2023-04-11T08:25:50.994Z,99232.72
2023-04-11T08:28:29.780Z,99227.47
2023-04-11T08:31:04.253Z,99231.34
2023-04-11T08:33:40.213Z,99228.69
2023-04-11T08:36:11.234Z,99233.25
2023-04-11T08:38:49.517Z,99229.06
2023-04-11T08:41:21.653Z,99226.66
2023-04-11T08:43:57.656Z,99229.78
2023-04-11T08:46:26.909Z,99227.78
2023-04-11T08:49:00.342Z,99225.22
2023-04-11T08:51:29.564Z,99231.84
2023-04-11T08:53:59.741Z,99219.44
2023-04-11T08:56:34.094Z,99226.19
2023-04-11T08:59:05.691Z,99215.56
2023-04-11T09:01:43.137Z,99217.84
2023-04-11T09:04:41.681Z,99219.41
2023-04-11T09:07:12.956Z,99214.72
2023-04-11T09:09:46.759Z,99208.78
2023-04-11T09:12:16.238Z,99207.41
2023-04-11T09:14:45.167Z,99204.13
2023-04-11T09:17:17.083Z,99183.72
2023-04-11T09:19:49.151Z,99182.00
2023-04-11T09:22:21.780Z,99175.84
2023-04-11T09:25:03.790Z,99176.72
2023-04-11T09:27:34.626Z,99175.06
2023-04-11T09:30:05.907Z,99164.22
2023-04-11T09:32:36.509Z,99165.03
2023-04-11T09:35:19.649Z,99164.03
2023-04-11T09:37:51.440Z,99162.38
2023-04-11T09:40:24.380Z,99153.50
2023-04-11T09:42:58.879Z,99152.00
2023-04-11T09:45:28.431Z,99149.84
2023-04-11T09:47:58.484Z,99137.25
2023-04-11T09:50:32.178Z,99144.28
2023-04-11T09:53:04.947Z,99157.69
2023-04-11T09:55:37.218Z,99159.97
2023-04-11T09:58:07.229Z,99149.75
2023-04-11T10:00:39.204Z,99155.44
2023-04-11T10:03:14.976Z,99170.25
2023-04-11T10:05:51.589Z,99149.19
2023-04-11T10:08:28.387Z,99146.50
2023-04-11T10:11:05.241Z,99151.00
2023-04-11T10:13:50.739Z,99147.47
2023-04-11T10:16:24.720Z,99146.09
2023-04-11T10:19:25.998Z,99148.03
2023-04-11T10:22:00.185Z,99142.75
2023-04-11T10:24:29.322Z,99130.50
2023-04-11T10:27:03.764Z,99109.19
2023-04-11T10:30:05.330Z,99113.72
2023-04-11T10:32:43.707Z,99115.28
2023-04-11T10:35:34.554Z,99123.28
2023-04-11T10:38:54.656Z,99128.47
2023-04-11T10:41:31.986Z,99139.13
2023-04-11T10:44:21.169Z,99147.09
2023-04-11T10:46:55.819Z,99152.69
2023-04-11T10:49:39.912Z,99139.84
2023-04-11T10:52:23.454Z,99139.41
2023-04-11T10:55:19.978Z,99146.47
2023-04-11T10:58:18.352Z,99144.44
2023-04-11T11:01:42.740Z,99140.22
2023-04-11T11:04:23.244Z,99138.22
2023-04-11T11:07:04.889Z,99125.91
2023-04-11T11:09:43.118Z,99129.03
2023-04-11T11:12:34.530Z,99120.09
2023-04-11T11:15:17.559Z,99123.06
2023-04-11T11:17:48.166Z,99112.91
2023-04-11T11:20:23.114Z,99123.19
2023-04-11T11:23:17.291Z,99122.66
2023-04-11T11:25:55.080Z,99113.03
2023-04-11T11:28:50.494Z,99119.19
2023-04-11T11:31:22.932Z,99127.84
2023-04-11T11:34:04.773Z,99127.53
2023-04-11T11:36:48.803Z,99153.13
2023-04-11T11:39:23.553Z,99154.97
2023-04-11T11:41:55.501Z,99149.13
2023-04-11T11:44:32.597Z,99170.03
2023-04-11T11:47:09.235Z,99152.13
2023-04-11T11:49:49.248Z,99152.72
2023-04-11T11:52:33.903Z,99155.72
2023-04-11T11:58:05.139Z,99139.94
2023-04-11T12:00:45.003Z,99143.56
2023-04-11T12:03:16.836Z,99148.50
2023-04-11T12:05:51.163Z,99144.38
2023-04-11T12:08:22.306Z,99148.88
2023-04-11T12:10:56.824Z,99148.09
2023-04-11T12:13:30.718Z,99142.41
2023-04-11T12:16:02.814Z,99139.59
2023-04-11T12:18:33.283Z,99132.56
2023-04-11T12:21:09.497Z,99128.56
2023-04-11T12:23:38.196Z,99141.31
2023-04-11T12:26:07.860Z,99134.59
2023-04-11T12:28:38.123Z,99124.53
2023-04-11T12:31:14.832Z,99149.66
2023-04-11T12:33:43.352Z,99142.13
2023-04-11T12:36:18.393Z,99132.44
2023-04-11T12:38:48.277Z,99135.78
2023-04-11T12:41:32.236Z,99127.56
2023-04-11T12:44:03.123Z,99125.91
2023-04-11T12:46:38.805Z,99123.88
2023-04-11T12:49:13.526Z,99140.78
2023-04-11T12:51:43.240Z,99129.59
2023-04-11T12:54:11.548Z,99140.47
2023-04-11T12:56:51.584Z,99139.97
2023-04-11T12:59:25.738Z,99116.88
2023-04-11T13:01:57.736Z,99116.34
2023-04-11T13:04:26.707Z,99120.03
2023-04-11T13:07:02.419Z,99122.56
2023-04-11T13:09:33.488Z,99114.69
2023-04-11T13:12:11.022Z,99125.06
2023-04-11T13:14:40.700Z,99151.41
2023-04-11T13:17:11.511Z,99137.53
2023-04-11T13:19:43.004Z,99154.22
2023-04-11T13:22:11.186Z,99163.78
2023-04-11T13:24:39.284Z,99182.97
2023-04-11T13:27:09.196Z,99178.03
2023-04-11T13:29:43.256Z,99215.00
2023-04-11T13:32:21.058Z,99203.94
2023-04-11T13:34:50.669Z,99204.31
2023-04-11T13:37:19.769Z,99205.03
2023-04-11T13:39:48.524Z,99199.94
2023-04-11T13:42:21.851Z,99209.44
2023-04-11T13:44:54.153Z,99169.22
2023-04-11T13:47:31.377Z,99203.81
2023-04-11T13:50:00.737Z,99208.72
2023-04-11T13:52:29.411Z,99180.81
2023-04-11T13:55:01.412Z,99198.53
2023-04-11T13:57:32.501Z,99200.84
2023-04-11T14:00:07.195Z,99209.19
2023-04-11T14:02:38.230Z,99220.28
2023-04-11T14:05:10.330Z,99218.28
2023-04-11T14:08:14.587Z,99234.56
2023-04-11T14:10:52.867Z,99227.63
2023-04-11T14:13:31.558Z,99214.03
2023-04-11T14:16:08.717Z,99219.50
2023-04-11T14:18:40.464Z,99206.84
2023-04-11T14:21:10.001Z,99199.50
2023-04-11T14:23:39.090Z,99195.81
2023-04-11T14:26:09.946Z,99178.59
2023-04-11T14:28:42.235Z,99183.34
2023-04-11T14:31:13.027Z,99172.00
2023-04-11T14:33:55.684Z,99177.41
2023-04-11T14:36:24.488Z,99159.38
2023-04-11T14:39:01.044Z,99164.19
2023-04-11T14:41:32.836Z,99174.03
2023-04-11T14:44:05.347Z,99171.22
2023-04-11T14:46:40.570Z,99173.75
2023-04-11T14:49:15.266Z,99171.91
2023-04-11T14:51:52.638Z,99171.47
2023-04-11T14:54:29.900Z,99164.00
2023-04-11T14:57:03.859Z,99164.69
2023-04-11T14:59:35.900Z,99158.03
2023-04-11T15:02:07.133Z,99166.38
2023-04-11T15:04:46.791Z,99174.66
2023-04-11T15:07:17.906Z,99155.38
2023-04-11T15:09:48.267Z,99161.69
2023-04-11T15:12:17.277Z,99147.81
2023-04-11T15:14:53.392Z,99159.31
2023-04-11T15:17:23.293Z,99165.06
2023-04-11T15:19:59.863Z,99161.06
2023-04-11T15:22:32.865Z,99149.84
2023-04-11T15:25:02.009Z,99123.91
2023-04-11T15:27:40.783Z,99146.72
2023-04-11T15:30:12.828Z,99165.88
2023-04-11T15:32:52.861Z,99163.75
2023-04-11T15:35:30.417Z,99163.41
2023-04-11T15:38:02.529Z,99152.72
2023-04-11T15:40:31.473Z,99157.69
2023-04-11T15:43:10.290Z,99154.69
2023-04-11T15:45:39.640Z,99150.13
2023-04-11T15:48:16.069Z,99145.25
2023-04-11T15:50:47.816Z,99151.84
2023-04-11T15:53:22.665Z,99154.38
2023-04-11T15:55:54.099Z,99157.53
2023-04-11T15:58:25.542Z,99159.25
2023-04-11T16:00:55.253Z,99128.44
2023-04-11T16:03:31.697Z,99192.63
2023-04-11T16:06:13.009Z,99157.19
2023-04-11T16:08:51.942Z,99152.31
2023-04-11T16:11:20.950Z,99139.75
2023-04-11T16:13:57.574Z,99152.00
2023-04-11T16:16:37.096Z,99133.94
2023-04-11T16:19:14.277Z,99136.44
2023-04-11T16:24:23.439Z,99154.13
2023-04-11T16:26:56.950Z,99141.81
2023-04-11T16:29:29.895Z,99155.31
2023-04-11T16:32:01.349Z,99156.06
2023-04-11T16:34:34.977Z,99175.88
2023-04-11T16:37:07.834Z,99141.19
2023-04-11T16:40:06.922Z,99135.56
2023-04-11T16:42:35.617Z,99113.88
2023-04-11T16:45:19.825Z,99116.16
2023-04-11T16:47:50.688Z,99135.94
2023-04-11T16:50:21.487Z,99154.94
2023-04-11T16:52:55.038Z,99136.63
2023-04-11T16:55:30.482Z,99127.16
2023-04-11T16:58:03.726Z,99131.44
2023-04-11T17:00:48.628Z,99135.41
2023-04-11T17:03:22.586Z,99164.53
2023-04-11T17:06:04.595Z,99149.06
2023-04-11T17:08:45.154Z,99139.59
2023-04-11T17:11:24.217Z,99165.16
2023-04-11T17:13:56.125Z,99147.94
2023-04-11T17:16:28.278Z,99155.16
2023-04-11T17:19:00.242Z,99172.94
2023-04-11T17:21:28.900Z,99177.53
2023-04-11T17:24:15.994Z,99171.56
2023-04-11T17:26:50.101Z,99191.81
2023-04-11T17:29:27.670Z,99201.31
2023-04-11T17:31:57.735Z,99217.84
2023-04-11T17:34:26.905Z,99229.47
2023-04-11T17:37:05.505Z,99249.09
2023-04-11T17:39:49.520Z,99271.09
2023-04-11T17:42:27.244Z,99286.28
2023-04-11T17:45:16.193Z,99310.94
2023-04-11T17:47:50.659Z,99303.47
2023-04-11T17:50:21.271Z,99321.72
2023-04-11T17:52:53.551Z,99292.41
2023-04-11T17:55:28.327Z,99288.69
2023-04-11T17:57:56.717Z,99298.88
2023-04-11T18:00:48.448Z,99315.56
2023-04-11T18:03:26.184Z,99295.09
2023-04-11T18:06:01.193Z,99284.44
2023-04-11T18:08:49.126Z,99284.56
2023-04-11T18:11:23.999Z,99283.06
2023-04-11T18:14:00.987Z,99282.75
2023-04-11T18:16:33.386Z,99268.72
2023-04-11T18:19:03.674Z,99274.22
2023-04-11T18:21:35.568Z,99282.50
2023-04-11T18:24:06.610Z,99285.03
2023-04-11T18:26:41.913Z,99312.09
2023-04-11T18:29:15.444Z,99318.97
2023-04-11T18:32:00.385Z,99319.00
2023-04-11T18:34:31.084Z,99326.69
2023-04-11T18:37:06.783Z,99325.56
2023-04-11T18:39:44.222Z,99340.28
2023-04-11T18:42:34.679Z,99335.53
2023-04-11T18:45:05.817Z,99341.53
2023-04-11T18:47:37.620Z,99341.41
2023-04-11T18:50:12.418Z,99347.56
2023-04-11T18:52:45.259Z,99341.25
2023-04-11T18:55:21.169Z,99348.56
2023-04-11T18:57:58.251Z,99358.78
2023-04-11T19:00:40.765Z,99350.09
2023-04-11T19:06:01.014Z,99346.56
2023-04-11T19:08:43.759Z,99357.94
2023-04-11T19:11:25.835Z,99355.97
2023-04-11T19:14:00.217Z,99343.94
2023-04-11T19:16:34.797Z,99346.00
2023-04-11T19:19:08.073Z,99349.94
2023-04-11T19:21:41.248Z,99331.44
2023-04-11T19:24:20.616Z,99338.31
2023-04-11T19:27:08.081Z,99342.25
2023-04-11T19:29:41.313Z,99328.38
2023-04-11T19:32:24.557Z,99331.88
2023-04-11T19:35:05.905Z,99335.50
2023-04-11T19:37:42.599Z,99333.09
2023-04-11T19:40:22.814Z,99328.38
2023-04-11T19:43:00.188Z,99333.38
2023-04-11T19:45:56.498Z,99335.63
2023-04-11T19:48:36.108Z,99327.94
2023-04-11T19:51:12.683Z,99329.75
2023-04-11T19:53:46.575Z,99342.19
2023-04-11T19:56:26.418Z,99335.75
2023-04-11T19:58:58.266Z,99333.53
2023-04-11T20:01:44.119Z,99338.56
2023-04-11T20:04:28.725Z,99329.41
2023-04-11T20:07:04.698Z,99329.59
2023-04-11T20:09:37.035Z,99334.22
2023-04-11T20:12:18.400Z,99340.97
2023-04-11T20:14:49.686Z,99341.50
2023-04-11T20:17:25.829Z,99325.13
2023-04-11T20:20:03.463Z,99352.84
2023-04-11T20:22:46.516Z,99344.47
2023-04-11T20:25:24.140Z,99348.41
2023-04-11T20:27:59.585Z,99349.66
2023-04-11T20:30:37.133Z,99341.38
2023-04-11T20:33:21.562Z,99342.66
2023-04-11T20:36:06.682Z,99350.38
2023-04-11T20:38:44.268Z,99346.16
2023-04-11T20:41:12.571Z,99345.31
2023-04-11T20:43:57.951Z,99343.09
2023-04-11T20:46:30.051Z,99348.56
2023-04-11T20:49:11.999Z,99343.34
2023-04-11T20:51:52.266Z,99340.28
2023-04-11T20:54:21.956Z,99355.28
2023-04-11T20:56:52.781Z,99347.31
2023-04-11T20:59:29.903Z,99342.78
2023-04-11T21:02:01.765Z,99341.25
2023-04-11T21:04:51.747Z,99354.81
2023-04-11T21:07:28.513Z,99330.84
2023-04-11T21:10:07.127Z,99332.00
2023-04-11T21:12:37.494Z,99332.97
2023-04-11T21:15:06.886Z,99332.00
2023-04-11T21:17:41.166Z,99341.94
2023-04-11T21:20:20.710Z,99331.69
2023-04-11T21:22:52.943Z,99329.59
2023-04-11T21:25:37.513Z,99330.41
2023-04-11T21:28:09.135Z,99345.97
2023-04-11T21:30:39.536Z,99328.47
2023-04-11T21:33:12.134Z,99325.50
2023-04-11T21:35:59.122Z,99318.78
2023-04-11T21:38:28.060Z,99317.47
2023-04-11T21:41:09.431Z,99320.72
2023-04-11T21:43:37.902Z,99329.69
2023-04-11T21:46:10.047Z,99327.84
2023-04-11T21:48:43.249Z,99322.63
2023-04-11T21:51:19.958Z,99338.97
2023-04-11T21:53:53.012Z,99338.47
2023-04-11T21:56:29.920Z,99340.16
2023-04-11T21:58:59.332Z,99330.38
2023-04-11T22:01:29.196Z,99336.81
2023-04-11T22:04:00.598Z,99332.88
2023-04-11T22:06:47.584Z,99346.72
2023-04-11T22:09:20.989Z,99337.66
2023-04-11T22:11:50.992Z,99344.66
2023-04-11T22:14:27.992Z,99360.34
2023-04-11T22:17:01.147Z,99355.03
2023-04-11T22:19:34.816Z,99357.56
2023-04-11T22:22:08.375Z,99345.84
2023-04-11T22:24:47.069Z,99350.56
2023-04-11T22:27:19.048Z,99349.13
2023-04-11T22:29:52.640Z,99349.13
2023-04-11T22:32:21.323Z,99334.69
2023-04-11T22:34:59.696Z,99344.72
2023-04-11T22:37:30.597Z,99347.19
2023-04-11T22:40:01.071Z,99351.69
2023-04-11T22:42:30.893Z,99336.16
2023-04-11T22:44:58.951Z,99338.41
2023-04-11T22:47:32.696Z,99344.88
2023-04-11T22:50:03.853Z,99350.03
2023-04-11T22:52:40.370Z,99334.63
2023-04-11T22:55:15.612Z,99332.28
2023-04-11T22:57:47.324Z,99331.13
2023-04-11T23:00:24.635Z,99335.28
2023-04-11T23:02:57.320Z,99327.53
2023-04-11T23:05:30.727Z,99327.66
2023-04-11T23:08:02.627Z,99316.75
2023-04-11T23:10:30.829Z,99312.25
2023-04-11T23:13:00.492Z,99314.09
2023-04-11T23:15:32.689Z,99316.94
2023-04-11T23:18:06.779Z,99327.31
2023-04-11T23:20:40.621Z,99303.78
2023-04-11T23:23:20.305Z,99300.72
2023-04-11T23:25:50.852Z,99306.03
2023-04-11T23:28:28.726Z,99291.34
2023-04-11T23:30:58.833Z,99307.56
2023-04-11T23:33:31.697Z,99301.94
2023-04-11T23:36:04.971Z,99294.53
2023-04-11T23:38:37.095Z,99297.34
2023-04-11T23:41:07.231Z,99304.09
2023-04-11T23:43:39.190Z,99294.00
2023-04-11T23:46:16.114Z,99296.63
2023-04-11T23:48:46.949Z,99301.22
2023-04-11T23:51:18.380Z,99296.75
2023-04-11T23:53:49.815Z,99292.84
2023-04-11T23:56:21.121Z,99281.06
2023-04-11T23:58:50.458Z,99295.56
